createdAt,value
2018-05-23T00:00:12.177Z,1005.79
2018-05-23T00:01:12.234Z,1005.77
2018-05-23T00:02:12.246Z,1005.77
2018-05-23T00:03:12.257Z,1005.72
2018-05-23T00:04:12.305Z,1005.69
2018-05-23T00:05:12.280Z,1005.74
2018-05-23T00:06:12.207Z,1005.67
2018-05-23T00:07:12.218Z,1005.66
2018-05-23T00:08:12.307Z,1005.64
2018-05-23T00:09:12.256Z,1005.63
2018-05-23T00:10:12.287Z,1005.62
2018-05-23T00:11:12.200Z,1005.63
2018-05-23T00:12:12.190Z,1005.59
2018-05-23T00:13:12.310Z,1005.66
2018-05-23T00:14:12.190Z,1005.66
2018-05-23T00:15:12.322Z,1005.69
2018-05-23T00:16:12.362Z,1005.69
2018-05-23T00:17:12.288Z,1005.70
2018-05-23T00:18:12.286Z,1005.67
2018-05-23T00:19:12.362Z,1005.67
2018-05-23T00:20:12.313Z,1005.69
2018-05-23T00:21:12.213Z,1005.72
2018-05-23T00:22:12.294Z,1005.73
2018-05-23T00:23:12.294Z,1005.71
2018-05-23T00:24:12.290Z,1005.72
2018-05-23T00:25:12.259Z,1005.75
2018-05-23T00:26:12.260Z,1005.72
2018-05-23T00:27:12.236Z,1005.70
2018-05-23T00:28:12.335Z,1005.70
2018-05-23T00:29:12.283Z,1005.69
2018-05-23T00:30:12.288Z,1005.72
2018-05-23T00:31:12.285Z,1005.75
2018-05-23T00:32:12.286Z,1005.75
2018-05-23T00:33:12.293Z,1005.76
2018-05-23T00:34:12.291Z,1005.81
2018-05-23T00:35:12.202Z,1005.81
2018-05-23T00:36:12.206Z,1005.80
2018-05-23T00:37:12.294Z,1005.80
2018-05-23T00:38:12.223Z,1005.82
2018-05-23T00:39:12.339Z,1005.82
2018-05-23T00:40:12.339Z,1005.81
2018-05-23T00:41:12.301Z,1005.78
2018-05-23T00:42:12.320Z,1005.76
2018-05-23T00:43:12.325Z,1005.74
2018-05-23T00:44:12.271Z,1005.74
2018-05-23T00:45:12.229Z,1005.73
2018-05-23T00:46:12.205Z,1005.73
2018-05-23T00:47:12.263Z,1005.72
2018-05-23T00:48:12.277Z,1005.76
2018-05-23T00:49:12.212Z,1005.73
2018-05-23T00:50:12.340Z,1005.68
2018-05-23T00:51:12.245Z,1005.68
2018-05-23T00:52:12.286Z,1005.65
2018-05-23T00:53:12.290Z,1005.66
2018-05-23T00:54:12.351Z,1005.67
2018-05-23T00:55:12.241Z,1005.68
2018-05-23T00:56:12.286Z,1005.66
2018-05-23T00:57:12.233Z,1005.67
2018-05-23T00:58:12.346Z,1005.67
2018-05-23T00:59:12.254Z,1005.72
2018-05-23T01:00:12.333Z,1005.69
2018-05-23T01:01:12.336Z,1005.73
2018-05-23T01:02:12.348Z,1005.73
2018-05-23T01:03:12.346Z,1005.75
2018-05-23T01:04:12.300Z,1005.79
2018-05-23T01:05:12.378Z,1005.78
2018-05-23T01:06:12.220Z,1005.86
2018-05-23T01:07:12.289Z,1005.84
2018-05-23T01:08:12.230Z,1005.89
2018-05-23T01:09:12.340Z,1005.88
2018-05-23T01:10:12.321Z,1005.89
2018-05-23T01:11:12.322Z,1005.89
2018-05-23T01:12:12.323Z,1005.88
2018-05-23T01:13:12.258Z,1005.86
2018-05-23T01:14:12.339Z,1005.84
2018-05-23T01:15:12.263Z,1005.83
2018-05-23T01:16:12.222Z,1005.83
2018-05-23T01:17:12.261Z,1005.87
2018-05-23T01:18:12.328Z,1005.87
2018-05-23T01:19:12.327Z,1005.87
2018-05-23T01:20:12.230Z,1005.87
2018-05-23T01:21:12.327Z,1005.93
2018-05-23T01:22:12.364Z,1005.91
2018-05-23T01:23:12.268Z,1005.94
2018-05-23T01:24:12.287Z,1005.91
2018-05-23T01:25:12.369Z,1005.92
2018-05-23T01:26:12.300Z,1005.90
2018-05-23T01:27:12.316Z,1005.89
2018-05-23T01:28:12.337Z,1005.92
2018-05-23T01:29:12.352Z,1005.91
2018-05-23T01:30:12.360Z,1005.89
2018-05-23T01:31:12.340Z,1005.91
2018-05-23T01:32:12.361Z,1005.94
2018-05-23T01:33:12.311Z,1005.96
2018-05-23T01:34:12.336Z,1005.94
2018-05-23T01:35:12.311Z,1005.96
2018-05-23T01:36:12.358Z,1005.94
2018-05-23T01:37:12.307Z,1005.91
2018-05-23T01:38:12.257Z,1005.92
2018-05-23T01:39:12.342Z,1005.91
2018-05-23T01:40:12.282Z,1005.91
2018-05-23T01:41:12.268Z,1005.91
2018-05-23T01:42:12.344Z,1005.90
2018-05-23T01:43:12.317Z,1005.92
2018-05-23T01:44:12.339Z,1005.95
2018-05-23T01:45:12.307Z,1005.93
2018-05-23T01:46:12.246Z,1005.96
2018-05-23T01:47:12.379Z,1005.97
2018-05-23T01:48:12.351Z,1006.00
2018-05-23T01:49:12.347Z,1006.01
2018-05-23T01:50:12.351Z,1006.04
2018-05-23T01:51:12.351Z,1006.03
2018-05-23T01:52:12.319Z,1006.05
2018-05-23T01:53:12.350Z,1006.06
2018-05-23T01:54:12.291Z,1006.03
2018-05-23T01:55:12.356Z,1006.04
2018-05-23T01:56:12.284Z,1006.01
2018-05-23T01:57:12.354Z,1006.04
2018-05-23T01:58:12.290Z,1006.08
2018-05-23T01:59:12.275Z,1006.07
2018-05-23T02:00:12.392Z,1006.10
2018-05-23T02:01:12.372Z,1006.14
2018-05-23T02:02:12.380Z,1006.16
2018-05-23T02:03:12.359Z,1006.13
2018-05-23T02:04:12.393Z,1006.18
2018-05-23T02:05:12.331Z,1006.16
2018-05-23T02:06:12.358Z,1006.24
2018-05-23T02:07:12.297Z,1006.18
2018-05-23T02:08:12.399Z,1006.17
2018-05-23T02:09:12.350Z,1006.12
2018-05-23T02:10:12.268Z,1006.16
2018-05-23T02:11:12.353Z,1006.17
2018-05-23T02:12:12.306Z,1006.13
2018-05-23T02:13:12.241Z,1006.14
2018-05-23T02:14:12.270Z,1006.16
2018-05-23T02:15:12.268Z,1006.11
2018-05-23T02:16:12.349Z,1006.12
2018-05-23T02:17:12.309Z,1006.14
2018-05-23T02:18:12.422Z,1006.14
2018-05-23T02:19:12.273Z,1006.13
2018-05-23T02:20:12.272Z,1006.17
2018-05-23T02:21:12.285Z,1006.16
2018-05-23T02:22:12.413Z,1006.20
2018-05-23T02:23:12.390Z,1006.17
2018-05-23T02:24:12.337Z,1006.18
2018-05-23T02:25:12.396Z,1006.15
2018-05-23T02:26:12.337Z,1006.17
2018-05-23T02:27:12.274Z,1006.17
2018-05-23T02:28:12.276Z,1006.15
2018-05-23T02:29:12.312Z,1006.13
2018-05-23T02:30:12.375Z,1006.12
2018-05-23T02:31:12.318Z,1006.10
2018-05-23T02:32:12.376Z,1006.10
2018-05-23T02:33:12.381Z,1006.07
2018-05-23T02:34:12.308Z,1006.05
2018-05-23T02:35:12.376Z,1006.09
2018-05-23T02:36:12.378Z,1006.11
2018-05-23T02:37:12.381Z,1006.10
2018-05-23T02:38:12.312Z,1006.08
2018-05-23T02:39:12.283Z,1006.07
2018-05-23T02:40:12.299Z,1006.10
2018-05-23T02:41:12.396Z,1006.04
2018-05-23T02:42:12.407Z,1005.97
2018-05-23T02:43:12.284Z,1005.98
2018-05-23T02:44:12.321Z,1006.06
2018-05-23T02:45:12.363Z,1006.05
2018-05-23T02:46:12.349Z,1006.03
2018-05-23T02:47:12.384Z,1006.03
2018-05-23T02:48:12.356Z,1006.00
2018-05-23T02:49:12.286Z,1005.99
2018-05-23T02:50:12.386Z,1006.00
2018-05-23T02:51:12.409Z,1005.98
2018-05-23T02:52:12.381Z,1005.98
2018-05-23T02:53:12.311Z,1005.97
2018-05-23T02:54:12.431Z,1005.99
2018-05-23T02:55:12.353Z,1006.00
2018-05-23T02:56:12.334Z,1005.99
2018-05-23T02:57:12.370Z,1006.00
2018-05-23T02:58:12.365Z,1005.99
2018-05-23T02:59:12.295Z,1005.98
2018-05-23T03:00:12.411Z,1005.98
2018-05-23T03:01:12.376Z,1006.01
2018-05-23T03:02:12.399Z,1006.01
2018-05-23T03:03:12.431Z,1006.02
2018-05-23T03:04:12.336Z,1006.03
2018-05-23T03:05:12.431Z,1006.05
2018-05-23T03:06:12.419Z,1006.01
2018-05-23T03:07:12.361Z,1006.02
2018-05-23T03:08:12.354Z,1006.03
2018-05-23T03:09:12.401Z,1006.01
2018-05-23T03:10:12.397Z,1006.02
2018-05-23T03:11:12.334Z,1006.03
2018-05-23T03:12:12.335Z,1006.02
2018-05-23T03:13:12.334Z,1006.05
2018-05-23T03:14:12.404Z,1006.06
2018-05-23T03:15:12.375Z,1006.04
2018-05-23T03:16:12.338Z,1006.10
2018-05-23T03:17:12.405Z,1006.11
2018-05-23T03:18:12.404Z,1006.16
2018-05-23T03:19:12.338Z,1006.12
2018-05-23T03:20:12.350Z,1006.17
2018-05-23T03:21:12.466Z,1006.18
2018-05-23T03:22:12.355Z,1006.11
2018-05-23T03:23:12.401Z,1006.15
2018-05-23T03:24:12.329Z,1006.15
2018-05-23T03:25:12.361Z,1006.14
2018-05-23T03:26:12.377Z,1006.14
2018-05-23T03:27:12.316Z,1006.20
2018-05-23T03:28:12.445Z,1006.20
2018-05-23T03:29:12.409Z,1006.16
2018-05-23T03:30:12.355Z,1006.18
2018-05-23T03:31:12.333Z,1006.20
2018-05-23T03:32:12.351Z,1006.19
2018-05-23T03:33:12.447Z,1006.20
2018-05-23T03:34:12.437Z,1006.17
2018-05-23T03:35:12.376Z,1006.21
2018-05-23T03:36:12.415Z,1006.18
2018-05-23T03:37:12.456Z,1006.17
2018-05-23T03:38:12.452Z,1006.18
2018-05-23T03:39:12.325Z,1006.23
2018-05-23T03:40:12.355Z,1006.20
2018-05-23T03:41:12.355Z,1006.26
2018-05-23T03:42:12.423Z,1006.25
2018-05-23T03:43:12.357Z,1006.26
2018-05-23T03:44:12.355Z,1006.28
2018-05-23T03:45:12.427Z,1006.29
2018-05-23T03:46:12.426Z,1006.33
2018-05-23T03:47:12.423Z,1006.28
2018-05-23T03:48:12.426Z,1006.34
2018-05-23T03:49:12.429Z,1006.39
2018-05-23T03:50:12.331Z,1006.37
2018-05-23T03:51:12.391Z,1006.39
2018-05-23T03:52:12.363Z,1006.34
2018-05-23T03:53:12.443Z,1006.40
2018-05-23T03:54:12.380Z,1006.45
2018-05-23T03:55:12.471Z,1006.45
2018-05-23T03:56:12.332Z,1006.44
2018-05-23T03:57:12.352Z,1006.45
2018-05-23T03:58:12.459Z,1006.47
2018-05-23T03:59:12.387Z,1006.45
2018-05-23T04:00:12.432Z,1006.45
2018-05-23T04:01:12.321Z,1006.47
2018-05-23T04:02:12.474Z,1006.49
2018-05-23T04:03:12.369Z,1006.54
2018-05-23T04:04:12.434Z,1006.55
2018-05-23T04:05:12.366Z,1006.55
2018-05-23T04:06:12.402Z,1006.56
2018-05-23T04:07:12.371Z,1006.61
2018-05-23T04:08:12.557Z,1006.62
2018-05-23T04:09:12.403Z,1006.66
2018-05-23T04:10:12.419Z,1006.61
2018-05-23T04:11:12.424Z,1006.66
2018-05-23T04:12:12.345Z,1006.67
2018-05-23T04:13:12.442Z,1006.69
2018-05-23T04:14:12.322Z,1006.69
2018-05-23T04:15:12.391Z,1006.71
2018-05-23T04:16:12.342Z,1006.71
2018-05-23T04:17:12.425Z,1006.72
2018-05-23T04:18:12.511Z,1006.78
2018-05-23T04:19:12.377Z,1006.76
2018-05-23T04:20:12.431Z,1006.79
2018-05-23T04:21:12.347Z,1006.79
2018-05-23T04:22:12.399Z,1006.77
2018-05-23T04:23:12.499Z,1006.79
2018-05-23T04:24:12.443Z,1006.81
2018-05-23T04:25:12.436Z,1006.77
2018-05-23T04:26:12.366Z,1006.83
2018-05-23T04:27:12.349Z,1006.83
2018-05-23T04:28:12.448Z,1006.84
2018-05-23T04:29:12.316Z,1006.84
2018-05-23T04:30:12.502Z,1006.88
2018-05-23T04:31:12.423Z,1006.86
2018-05-23T04:32:12.419Z,1006.84
2018-05-23T04:33:12.472Z,1006.89
2018-05-23T04:34:12.424Z,1006.86
2018-05-23T04:35:12.350Z,1006.88
2018-05-23T04:36:12.423Z,1006.93
2018-05-23T04:37:12.427Z,1006.93
2018-05-23T04:38:12.360Z,1006.92
2018-05-23T04:39:12.488Z,1006.90
2018-05-23T04:40:12.461Z,1006.94
2018-05-23T04:41:12.361Z,1006.97
2018-05-23T04:42:12.423Z,1006.96
2018-05-23T04:43:12.459Z,1006.96
2018-05-23T04:44:12.419Z,1006.94
2018-05-23T04:45:12.486Z,1006.98
2018-05-23T04:46:12.398Z,1007.01
2018-05-23T04:47:12.413Z,1007.01
2018-05-23T04:48:12.484Z,1007.00
2018-05-23T04:49:12.490Z,1007.02
2018-05-23T04:50:12.396Z,1007.02
2018-05-23T04:51:12.462Z,1007.05
2018-05-23T04:52:12.400Z,1007.04
2018-05-23T04:53:12.470Z,1007.04
2018-05-23T04:54:12.426Z,1007.02
2018-05-23T04:55:12.466Z,1007.01
2018-05-23T04:56:12.466Z,1007.07
2018-05-23T04:57:12.474Z,1007.06
2018-05-23T04:58:12.407Z,1007.05
2018-05-23T04:59:12.471Z,1007.08
2018-05-23T05:00:12.406Z,1007.13
2018-05-23T05:01:12.484Z,1007.15
2018-05-23T05:02:12.401Z,1007.14
2018-05-23T05:03:12.472Z,1007.17
2018-05-23T05:04:12.469Z,1007.18
2018-05-23T05:05:12.473Z,1007.19
2018-05-23T05:06:12.475Z,1007.24
2018-05-23T05:07:12.410Z,1007.22
2018-05-23T05:08:12.367Z,1007.22
2018-05-23T05:09:12.408Z,1007.24
2018-05-23T05:10:12.490Z,1007.25
2018-05-23T05:11:12.501Z,1007.27
2018-05-23T05:12:12.383Z,1007.30
2018-05-23T05:13:12.564Z,1007.28
2018-05-23T05:14:12.507Z,1007.31
2018-05-23T05:15:12.505Z,1007.34
2018-05-23T05:16:12.505Z,1007.34
2018-05-23T05:17:12.484Z,1007.34
2018-05-23T05:18:12.479Z,1007.38
2018-05-23T05:19:12.377Z,1007.41
2018-05-23T05:20:12.466Z,1007.40
2018-05-23T05:21:12.478Z,1007.43
2018-05-23T05:22:12.418Z,1007.44
2018-05-23T05:23:12.471Z,1007.43
2018-05-23T05:24:12.436Z,1007.45
2018-05-23T05:25:12.473Z,1007.46
2018-05-23T05:26:12.421Z,1007.45
2018-05-23T05:27:12.422Z,1007.48
2018-05-23T05:28:12.482Z,1007.49
2018-05-23T05:29:12.396Z,1007.56
2018-05-23T05:30:12.414Z,1007.53
2018-05-23T05:31:12.428Z,1007.53
2018-05-23T05:32:12.523Z,1007.55
2018-05-23T05:33:12.469Z,1007.57
2018-05-23T05:34:12.415Z,1007.56
2018-05-23T05:35:12.492Z,1007.57
2018-05-23T05:36:12.524Z,1007.61
2018-05-23T05:37:12.532Z,1007.59
2018-05-23T05:38:12.495Z,1007.61
2018-05-23T05:39:12.495Z,1007.61
2018-05-23T05:40:12.394Z,1007.60
2018-05-23T05:41:12.453Z,1007.64
2018-05-23T05:42:12.531Z,1007.65
2018-05-23T05:43:12.438Z,1007.63
2018-05-23T05:44:12.542Z,1007.64
2018-05-23T05:45:12.397Z,1007.66
2018-05-23T05:46:12.494Z,1007.65
2018-05-23T05:47:12.470Z,1007.65
2018-05-23T05:48:12.499Z,1007.66
2018-05-23T05:49:12.528Z,1007.69
2018-05-23T05:50:12.456Z,1007.71
2018-05-23T05:51:12.543Z,1007.70
2018-05-23T05:52:12.443Z,1007.74
2018-05-23T05:53:12.407Z,1007.76
2018-05-23T05:54:12.481Z,1007.77
2018-05-23T05:55:12.512Z,1007.81
2018-05-23T05:56:12.442Z,1007.78
2018-05-23T05:57:12.542Z,1007.80
2018-05-23T05:58:12.540Z,1007.79
2018-05-23T05:59:12.526Z,1007.83
2018-05-23T06:00:12.508Z,1007.87
2018-05-23T06:01:12.547Z,1007.84
2018-05-23T06:02:12.514Z,1007.91
2018-05-23T06:03:12.507Z,1007.92
2018-05-23T06:04:12.508Z,1007.94
2018-05-23T06:05:12.444Z,1007.97
2018-05-23T06:06:12.514Z,1008.03
2018-05-23T06:07:12.511Z,1008.00
2018-05-23T06:08:12.513Z,1008.02
2018-05-23T06:09:12.515Z,1008.03
2018-05-23T06:10:12.474Z,1008.05
2018-05-23T06:11:12.488Z,1008.02
2018-05-23T06:12:12.526Z,1008.03
2018-05-23T06:13:12.541Z,1008.05
2018-05-23T06:14:12.543Z,1008.06
2018-05-23T06:15:12.551Z,1008.09
2018-05-23T06:16:12.536Z,1008.06
2018-05-23T06:17:12.515Z,1008.08
2018-05-23T06:18:12.524Z,1008.08
2018-05-23T06:19:12.420Z,1008.10
2018-05-23T06:20:12.555Z,1008.06
2018-05-23T06:21:12.457Z,1008.11
2018-05-23T06:22:12.585Z,1008.13
2018-05-23T06:23:12.526Z,1008.13
2018-05-23T06:24:12.522Z,1008.15
2018-05-23T06:25:12.489Z,1008.16
2018-05-23T06:26:12.530Z,1008.15
2018-05-23T06:27:12.460Z,1008.15
2018-05-23T06:28:12.550Z,1008.17
2018-05-23T06:29:12.534Z,1008.17
2018-05-23T06:30:12.450Z,1008.18
2018-05-23T06:31:12.556Z,1008.21
2018-05-23T06:32:12.544Z,1008.21
2018-05-23T06:33:12.563Z,1008.20
2018-05-23T06:34:12.545Z,1008.23
2018-05-23T06:35:12.450Z,1008.19
2018-05-23T06:36:12.516Z,1008.22
2018-05-23T06:37:12.514Z,1008.23
2018-05-23T06:38:12.497Z,1008.23
2018-05-23T06:39:12.498Z,1008.23
2018-05-23T06:40:12.497Z,1008.23
2018-05-23T06:41:12.560Z,1008.25
2018-05-23T06:42:12.580Z,1008.22
2018-05-23T06:43:12.507Z,1008.22
2018-05-23T06:44:12.496Z,1008.25
2018-05-23T06:45:12.559Z,1008.25
2018-05-23T06:46:12.536Z,1008.27
2018-05-23T06:47:12.516Z,1008.22
2018-05-23T06:48:12.462Z,1008.25
2018-05-23T06:49:12.496Z,1008.27
2018-05-23T06:50:12.567Z,1008.27
2018-05-23T06:51:12.506Z,1008.27
2018-05-23T06:52:12.461Z,1008.32
2018-05-23T06:53:12.582Z,1008.30
2018-05-23T06:54:12.462Z,1008.30
2018-05-23T06:55:12.542Z,1008.33
2018-05-23T06:56:12.525Z,1008.32
2018-05-23T06:57:12.449Z,1008.31
2018-05-23T06:58:12.509Z,1008.38
2018-05-23T06:59:12.523Z,1008.39
2018-05-23T07:00:12.547Z,1008.39
2018-05-23T07:01:12.569Z,1008.40
2018-05-23T07:02:12.552Z,1008.39
2018-05-23T07:03:12.523Z,1008.39
2018-05-23T07:04:12.586Z,1008.39
2018-05-23T07:05:12.457Z,1008.41
2018-05-23T07:06:12.526Z,1008.42
2018-05-23T07:07:12.567Z,1008.42
2018-05-23T07:08:12.595Z,1008.41
2018-05-23T07:09:12.459Z,1008.47
2018-05-23T07:10:12.482Z,1008.46
2018-05-23T07:11:12.537Z,1008.46
2018-05-23T07:12:12.535Z,1008.44
2018-05-23T07:13:12.473Z,1008.47
2018-05-23T07:14:12.535Z,1008.50
2018-05-23T07:15:12.628Z,1008.49
2018-05-23T07:16:12.462Z,1008.47
2018-05-23T07:17:12.538Z,1008.45
2018-05-23T07:18:12.643Z,1008.47
2018-05-23T07:19:12.461Z,1008.48
2018-05-23T07:20:12.497Z,1008.48
2018-05-23T07:21:12.551Z,1008.49
2018-05-23T07:22:12.587Z,1008.45
2018-05-23T07:23:12.596Z,1008.47
2018-05-23T07:24:12.579Z,1008.48
2018-05-23T07:25:12.622Z,1008.50
2018-05-23T07:26:12.526Z,1008.51
2018-05-23T07:27:12.589Z,1008.50
2018-05-23T07:28:12.525Z,1008.53
2018-05-23T07:29:12.592Z,1008.53
2018-05-23T07:30:12.464Z,1008.48
2018-05-23T07:31:12.611Z,1008.55
2018-05-23T07:32:12.554Z,1008.54
2018-05-23T07:33:12.534Z,1008.54
2018-05-23T07:34:12.466Z,1008.56
2018-05-23T07:35:12.470Z,1008.56
2018-05-23T07:36:12.492Z,1008.58
2018-05-23T07:37:12.469Z,1008.60
2018-05-23T07:38:12.605Z,1008.61
2018-05-23T07:39:12.487Z,1008.60
2018-05-23T07:40:12.534Z,1008.63
2018-05-23T07:41:12.444Z,1008.65
2018-05-23T07:42:12.471Z,1008.63
2018-05-23T07:43:12.440Z,1008.65
2018-05-23T07:44:12.441Z,1008.62
2018-05-23T07:45:12.507Z,1008.61
2018-05-23T07:46:12.459Z,1008.64
2018-05-23T07:47:12.450Z,1008.59
2018-05-23T07:48:12.510Z,1008.61
2018-05-23T07:49:12.501Z,1008.62
2018-05-23T07:50:12.534Z,1008.63
2018-05-23T07:51:12.599Z,1008.66
2018-05-23T07:52:12.579Z,1008.67
2018-05-23T07:53:12.548Z,1008.64
2018-05-23T07:54:12.621Z,1008.67
2018-05-23T07:55:12.491Z,1008.65
2018-05-23T07:56:12.555Z,1008.63
2018-05-23T07:57:12.557Z,1008.68
2018-05-23T07:58:12.509Z,1008.66
2018-05-23T07:59:12.487Z,1008.67
2018-05-23T08:00:12.524Z,1008.64
2018-05-23T08:01:12.615Z,1008.74
2018-05-23T08:02:12.485Z,1008.66
2018-05-23T08:03:12.550Z,1008.71
2018-05-23T08:04:12.623Z,1008.69
2018-05-23T08:05:12.594Z,1008.71
2018-05-23T08:06:12.551Z,1008.71
2018-05-23T08:07:12.510Z,1008.69
2018-05-23T08:08:12.624Z,1008.71
2018-05-23T08:09:12.616Z,1008.69
2018-05-23T08:10:12.528Z,1008.70
2018-05-23T08:11:12.630Z,1008.69
2018-05-23T08:12:12.489Z,1008.75
2018-05-23T08:13:12.610Z,1008.72
2018-05-23T08:14:12.616Z,1008.67
2018-05-23T08:15:12.571Z,1008.73
2018-05-23T08:16:12.617Z,1008.73
2018-05-23T08:17:12.633Z,1008.75
2018-05-23T08:18:12.616Z,1008.77
2018-05-23T08:19:12.603Z,1008.75
2018-05-23T08:20:12.571Z,1008.75
2018-05-23T08:21:12.498Z,1008.79
2018-05-23T08:22:12.521Z,1008.81
2018-05-23T08:23:12.522Z,1008.73
2018-05-23T08:24:12.623Z,1008.78
2018-05-23T08:25:12.524Z,1008.79
2018-05-23T08:26:12.623Z,1008.77
2018-05-23T08:27:12.575Z,1008.82
2018-05-23T08:28:12.565Z,1008.81
2018-05-23T08:29:12.620Z,1008.80
2018-05-23T08:30:12.507Z,1008.85
2018-05-23T08:31:12.622Z,1008.83
2018-05-23T08:32:12.636Z,1008.81
2018-05-23T08:33:12.629Z,1008.86
2018-05-23T08:34:12.578Z,1008.81
2018-05-23T08:35:12.579Z,1008.84
2018-05-23T08:36:12.528Z,1008.82
2018-05-23T08:37:12.564Z,1008.87
2018-05-23T08:38:12.631Z,1008.88
2018-05-23T08:39:12.632Z,1008.85
2018-05-23T08:40:12.562Z,1008.88
2018-05-23T08:41:12.574Z,1008.89
2018-05-23T08:42:12.562Z,1008.88
2018-05-23T08:43:12.574Z,1008.87
2018-05-23T08:44:12.577Z,1008.87
2018-05-23T08:45:12.569Z,1008.91
2018-05-23T08:46:12.587Z,1008.92
2018-05-23T08:47:12.629Z,1008.97
2018-05-23T08:48:12.637Z,1008.93
2018-05-23T08:49:12.576Z,1008.93
2018-05-23T08:50:12.629Z,1008.91
2018-05-23T08:51:12.637Z,1008.94
2018-05-23T08:52:12.656Z,1008.96
2018-05-23T08:53:12.654Z,1008.96
2018-05-23T08:54:12.646Z,1008.93
2018-05-23T08:55:12.644Z,1008.95
2018-05-23T08:56:12.699Z,1008.95
2018-05-23T08:57:12.639Z,1008.97
2018-05-23T08:58:12.590Z,1008.95
2018-05-23T08:59:12.667Z,1008.98
2018-05-23T09:00:12.657Z,1008.99
2018-05-23T09:01:12.596Z,1008.99
2018-05-23T09:02:12.597Z,1009.00
2018-05-23T09:03:12.650Z,1008.99
2018-05-23T09:04:12.590Z,1008.99
2018-05-23T09:05:12.609Z,1009.02
2018-05-23T09:06:12.607Z,1009.03
2018-05-23T09:07:12.631Z,1009.06
2018-05-23T09:08:12.661Z,1009.11
2018-05-23T09:09:12.623Z,1009.12
2018-05-23T09:10:12.537Z,1009.09
2018-05-23T09:11:12.645Z,1009.12
2018-05-23T09:12:12.748Z,1009.11
2018-05-23T09:13:12.533Z,1009.14
2018-05-23T09:14:12.534Z,1009.09
2018-05-23T09:15:12.602Z,1009.12
2018-05-23T09:16:12.656Z,1009.13
2018-05-23T09:17:12.593Z,1009.10
2018-05-23T09:18:12.597Z,1009.08
2018-05-23T09:19:12.613Z,1009.08
2018-05-23T09:20:12.540Z,1009.07
2018-05-23T09:21:12.601Z,1009.06
2018-05-23T09:22:12.675Z,1009.08
2018-05-23T09:23:12.536Z,1009.09
2018-05-23T09:24:12.655Z,1009.08
2018-05-23T09:25:12.674Z,1009.10
2018-05-23T09:26:12.657Z,1009.07
2018-05-23T09:27:12.680Z,1009.09
2018-05-23T09:28:12.578Z,1009.11
2018-05-23T09:29:12.668Z,1009.12
2018-05-23T09:30:12.549Z,1009.11
2018-05-23T09:31:12.550Z,1009.10
2018-05-23T09:32:12.710Z,1009.08
2018-05-23T09:33:12.620Z,1009.10
2018-05-23T09:34:12.659Z,1009.08
2018-05-23T09:35:12.543Z,1009.09
2018-05-23T09:36:12.556Z,1009.11
2018-05-23T09:37:12.552Z,1009.12
2018-05-23T09:38:12.645Z,1009.14
2018-05-23T09:39:12.739Z,1009.10
2018-05-23T09:40:12.644Z,1009.11
2018-05-23T09:41:12.571Z,1009.09
2018-05-23T09:42:12.666Z,1009.13
2018-05-23T09:43:12.622Z,1009.12
2018-05-23T09:44:12.677Z,1009.12
2018-05-23T09:45:12.729Z,1009.16
2018-05-23T09:46:12.652Z,1009.16
2018-05-23T09:47:12.681Z,1009.15
2018-05-23T09:48:12.678Z,1009.10
2018-05-23T09:49:12.557Z,1009.15
2018-05-23T09:50:12.581Z,1009.13
2018-05-23T09:51:12.552Z,1009.15
2018-05-23T09:52:12.614Z,1009.17
2018-05-23T09:53:12.677Z,1009.17
2018-05-23T09:54:12.641Z,1009.19
2018-05-23T09:55:12.747Z,1009.24
2018-05-23T09:56:12.565Z,1009.22
2018-05-23T09:57:12.697Z,1009.18
2018-05-23T09:58:12.659Z,1009.21
2018-05-23T09:59:12.699Z,1009.22
2018-05-23T10:00:12.606Z,1009.24
2018-05-23T10:01:12.687Z,1009.22
2018-05-23T10:02:12.554Z,1009.24
2018-05-23T10:03:12.625Z,1009.26
2018-05-23T10:04:12.624Z,1009.27
2018-05-23T10:05:12.702Z,1009.20
2018-05-23T10:06:12.704Z,1009.25
2018-05-23T10:07:12.639Z,1009.22
2018-05-23T10:08:12.631Z,1009.25
2018-05-23T10:09:12.694Z,1009.24
2018-05-23T10:10:12.638Z,1009.28
2018-05-23T10:11:12.631Z,1009.27
2018-05-23T10:12:12.704Z,1009.25
2018-05-23T10:13:12.703Z,1009.24
2018-05-23T10:14:12.719Z,1009.22
2018-05-23T10:15:12.645Z,1009.21
2018-05-23T10:16:12.676Z,1009.24
2018-05-23T10:17:12.571Z,1009.21
2018-05-23T10:18:12.651Z,1009.21
2018-05-23T10:19:12.608Z,1009.23
2018-05-23T10:20:12.702Z,1009.23
2018-05-23T10:21:12.608Z,1009.22
2018-05-23T10:22:12.772Z,1009.18
2018-05-23T10:23:12.602Z,1009.19
2018-05-23T10:24:12.676Z,1009.20
2018-05-23T10:25:12.606Z,1009.18
2018-05-23T10:26:12.605Z,1009.20
2018-05-23T10:27:12.683Z,1009.20
2018-05-23T10:28:12.679Z,1009.18
2018-05-23T10:29:12.613Z,1009.21
2018-05-23T10:30:12.567Z,1009.22
2018-05-23T10:31:12.668Z,1009.18
2018-05-23T10:32:12.669Z,1009.19
2018-05-23T10:33:12.551Z,1009.23
2018-05-23T10:34:12.625Z,1009.23
2018-05-23T10:35:12.572Z,1009.23
2018-05-23T10:36:12.668Z,1009.23
2018-05-23T10:37:12.670Z,1009.24
2018-05-23T10:38:12.682Z,1009.27
2018-05-23T10:39:12.784Z,1009.24
2018-05-23T10:40:12.595Z,1009.26
2018-05-23T10:41:12.551Z,1009.23
2018-05-23T10:42:12.579Z,1009.21
2018-05-23T10:43:12.642Z,1009.22
2018-05-23T10:44:12.561Z,1009.22
2018-05-23T10:45:12.553Z,1009.22
2018-05-23T10:46:12.598Z,1009.21
2018-05-23T10:47:12.678Z,1009.18
2018-05-23T10:48:12.618Z,1009.19
2018-05-23T10:49:12.597Z,1009.19
2018-05-23T10:50:12.642Z,1009.24
2018-05-23T10:51:12.676Z,1009.24
2018-05-23T10:52:12.656Z,1009.19
2018-05-23T10:53:12.600Z,1009.18
2018-05-23T10:54:12.694Z,1009.19
2018-05-23T10:55:12.722Z,1009.16
2018-05-23T10:56:12.677Z,1009.18
2018-05-23T10:57:12.750Z,1009.19
2018-05-23T10:58:12.715Z,1009.18
2018-05-23T10:59:12.666Z,1009.20
2018-05-23T11:00:12.794Z,1009.21
2018-05-23T11:01:12.726Z,1009.17
2018-05-23T11:02:12.704Z,1009.21
2018-05-23T11:03:12.733Z,1009.21
2018-05-23T11:04:12.744Z,1009.20
2018-05-23T11:05:12.741Z,1009.16
2018-05-23T11:06:12.626Z,1009.19
2018-05-23T11:07:12.627Z,1009.17
2018-05-23T11:08:12.683Z,1009.17
2018-05-23T11:09:12.668Z,1009.23
2018-05-23T11:10:12.613Z,1009.19
2018-05-23T11:12:12.713Z,1009.16
2018-05-23T11:13:12.729Z,1009.19
2018-05-23T11:14:12.668Z,1009.12
2018-05-23T11:15:12.696Z,1009.15
2018-05-23T11:16:12.738Z,1009.16
2018-05-23T11:17:12.744Z,1009.23
2018-05-23T11:18:12.679Z,1009.16
2018-05-23T11:19:12.669Z,1009.16
2018-05-23T11:20:12.694Z,1009.15
2018-05-23T11:21:12.716Z,1009.16
2018-05-23T11:22:12.750Z,1009.14
2018-05-23T11:23:12.716Z,1009.11
2018-05-23T11:24:12.688Z,1009.10
2018-05-23T11:25:12.687Z,1009.10
2018-05-23T11:26:12.753Z,1009.12
2018-05-23T11:27:12.679Z,1009.11
2018-05-23T11:28:12.619Z,1009.13
2018-05-23T11:29:12.677Z,1009.12
2018-05-23T11:30:12.689Z,1009.10
2018-05-23T11:31:12.658Z,1009.12
2018-05-23T11:32:12.700Z,1009.13
2018-05-23T11:33:12.747Z,1009.13
2018-05-23T11:34:12.625Z,1009.14
2018-05-23T11:35:12.754Z,1009.08
2018-05-23T11:36:12.725Z,1009.09
2018-05-23T11:37:12.634Z,1009.11
2018-05-23T11:38:12.682Z,1009.12
2018-05-23T11:39:12.701Z,1009.05
2018-05-23T11:40:12.685Z,1009.09
2018-05-23T11:41:12.660Z,1009.02
2018-05-23T11:42:12.730Z,1009.08
2018-05-23T11:43:12.666Z,1009.10
2018-05-23T11:44:12.731Z,1009.12
2018-05-23T11:45:12.729Z,1009.11
2018-05-23T11:46:12.728Z,1009.10
2018-05-23T11:47:12.733Z,1009.08
2018-05-23T11:48:12.674Z,1009.13
2018-05-23T11:49:12.732Z,1009.11
2018-05-23T11:50:12.691Z,1009.13
2018-05-23T11:51:12.694Z,1009.10
2018-05-23T11:52:12.729Z,1009.12
2018-05-23T11:53:12.754Z,1009.12
2018-05-23T11:54:12.638Z,1009.10
2018-05-23T11:55:12.717Z,1009.07
2018-05-23T11:56:12.655Z,1009.05
2018-05-23T11:57:12.706Z,1009.03
2018-05-23T11:58:12.773Z,1009.00
2018-05-23T11:59:12.741Z,1009.07
2018-05-23T12:00:12.651Z,1009.03
2018-05-23T12:01:12.772Z,1009.02
2018-05-23T12:02:12.774Z,1009.04
2018-05-23T12:03:12.713Z,1008.99
2018-05-23T12:04:12.763Z,1009.01
2018-05-23T12:05:12.647Z,1008.97
2018-05-23T12:06:12.701Z,1008.99